Time;durP1;ratioP1;P1;durP2;ratioP2;P2;SDS_P1;SDS_P2;PMS_P1;PMS_P2;Temp;Humidity;BMP_temperature;BMP_pressure;BME280_temperature;BME280_humidity;BME280_pressure;Samples;Min_cycle;Max_cycle;Signal;HPM_P1;HPM_P2
2022/10/01 00:01:54;;;;;;;;;;;10.90;99.90;;;;;;5033764;28;796;-61
2022/10/01 00:04:19;;;;;;;;;;;10.90;99.90;;;;;;5052085;28;1147;-61
2022/10/01 00:06:45;;;;;;;;;;;10.90;99.90;;;;;;5054254;28;1039;-61
2022/10/01 00:09:11;;;;;;;;;;;10.90;99.90;;;;;;5053857;28;807;-61
2022/10/01 00:11:37;;;;;;;;;;;10.80;99.90;;;;;;5019617;28;1659;-61
2022/10/01 00:14:02;;;;;;;;;;;10.80;99.90;;;;;;5054083;28;985;-61
2022/10/01 00:16:29;;;;;;;;;;;10.80;99.90;;;;;;5053738;28;992;-61
2022/10/01 00:18:55;;;;;;;;;;;10.80;99.90;;;;;;5036392;28;1963;-61
2022/10/01 00:21:22;;;;;;;;;;;10.80;99.90;;;;;;5053490;28;1166;-61
2022/10/01 00:23:54;;;;;;;;;;;10.80;99.90;;;;;;5010844;28;1264;-61
2022/10/01 00:26:21;;;;;;;;;;;10.80;99.90;;;;;;5034728;28;941;-61
2022/10/01 00:28:47;;;;;;;;;;;10.70;99.90;;;;;;5016077;28;1147;-61
2022/10/01 00:31:14;;;;;;;;;;;10.70;99.90;;;;;;5053860;28;857;-61
2022/10/01 00:33:40;;;;;;;;;;;10.70;99.90;;;;;;5046020;28;839;-61
2022/10/01 00:36:07;;;;;;;;;;;10.60;99.90;;;;;;5033560;28;1300;-61
2022/10/01 00:38:32;;;;;;;;;;;10.70;99.90;;;;;;5035274;28;1973;-61
2022/10/01 00:40:58;;;;;;;;;;;10.70;99.90;;;;;;5033639;28;1307;-61
2022/10/01 00:43:25;;;;;;;;;;;10.60;99.90;;;;;;5032389;28;1360;-60
2022/10/01 00:45:54;;;;;;;;;;;10.60;99.90;;;;;;5033821;28;1232;-61
2022/10/01 00:48:21;;;;;;;;;;;10.60;99.90;;;;;;5034849;28;1224;-61
2022/10/01 00:50:48;;;;;;;;;;;10.60;99.90;;;;;;5032417;28;1205;-61
2022/10/01 00:53:13;;;;;;;;;;;10.60;99.90;;;;;;5033484;28;1285;-61
2022/10/01 00:55:41;;;;;;;;;;;10.60;99.90;;;;;;5014744;28;1272;-61
2022/10/01 00:58:09;;;;;;;;;;;10.50;99.90;;;;;;5014847;28;2064;-61
2022/10/01 01:00:35;;;;;;;;;;;10.50;99.90;;;;;;5034132;28;941;-61
2022/10/01 01:03:01;;;;;;;;;;;10.50;99.90;;;;;;5016405;28;1045;-61
2022/10/01 01:05:26;;;;;;;;;;;10.50;99.90;;;;;;5032928;28;1167;-61
2022/10/01 01:07:52;;;;;;;;;;;10.50;99.90;;;;;;5033873;28;1017;-61
2022/10/01 01:10:23;;;;;;;;;;;10.50;99.90;;;;;;5016339;28;1025;-61
2022/10/01 01:12:54;;;;;;;;;;;10.50;99.90;;;;;;5032976;28;918;-61
2022/10/01 01:15:25;;;;;;;;;;;10.50;99.90;;;;;;5055554;28;1203;-61
2022/10/01 01:17:53;;;;;;;;;;;10.50;99.90;;;;;;5057579;28;1917;-61
2022/10/01 01:20:52;;;;;;;;;;;10.50;99.90;;;;;;5056797;28;1052;-61
2022/10/01 01:23:17;;;;;;;;;;;10.50;99.90;;;;;;5053445;28;2033;-61
2022/10/01 01:25:43;;;;;;;;;;;10.50;99.90;;;;;;5038858;28;1040;-61
2022/10/01 01:28:15;;;;;;;;;;;10.50;99.90;;;;;;5057436;28;953;-61
2022/10/01 01:30:41;;;;;;;;;;;10.50;99.90;;;;;;5057296;28;1178;-61
2022/10/01 01:33:11;;;;;;;;;;;10.50;99.90;;;;;;5053211;28;945;-61
2022/10/01 01:35:41;;;;;;;;;;;10.50;99.90;;;;;;5037292;28;1171;-61
2022/10/01 01:38:10;;;;;;;;;;;10.50;99.90;;;;;;5019624;28;1967;-61
2022/10/01 01:40:37;;;;;;;;;;;10.50;99.90;;;;;;5045146;28;1020;-61
2022/10/01 01:43:06;;;;;;;;;;;10.50;99.90;;;;;;5056985;28;799;-61
2022/10/01 01:45:32;;;;;;;;;;;10.50;99.90;;;;;;5002504;28;1681;-61
2022/10/01 01:47:59;;;;;;;;;;;10.50;99.90;;;;;;5016366;28;1112;-61
2022/10/01 01:50:27;;;;;;;;;;;10.50;99.90;;;;;;5050636;28;1207;-61
2022/10/01 01:52:53;;;;;;;;;;;10.40;99.90;;;;;;5057256;28;937;-61
2022/10/01 01:55:20;;;;;;;;;;;10.40;99.90;;;;;;5038764;28;1629;-61
2022/10/01 01:57:46;;;;;;;;;;;10.40;99.90;;;;;;5022817;28;1914;-61
2022/10/01 02:00:13;;;;;;;;;;;10.40;99.90;;;;;;5057263;28;1005;-61
2022/10/01 02:02:41;;;;;;;;;;;10.40;99.90;;;;;;5055988;28;866;-61
2022/10/01 02:05:09;;;;;;;;;;;10.30;99.90;;;;;;5038537;28;1083;-61
2022/10/01 02:07:42;;;;;;;;;;;10.30;99.90;;;;;;5056432;28;1202;-61
2022/10/01 02:10:22;;;;;;;;;;;10.30;99.90;;;;;;5056768;28;1059;-61
2022/10/01 02:13:02;;;;;;;;;;;10.30;99.90;;;;;;5056496;28;849;-61
2022/10/01 02:15:40;;;;;;;;;;;10.30;99.90;;;;;;5055665;28;1178;-61
2022/10/01 02:18:15;;;;;;;;;;;10.30;99.90;;;;;;5056214;28;1902;-62
2022/10/01 02:20:44;;;;;;;;;;;10.20;99.90;;;;;;5050845;28;1294;-61
2022/10/01 02:23:12;;;;;;;;;;;10.20;99.90;;;;;;5035911;28;905;-61
2022/10/01 02:25:40;;;;;;;;;;;10.20;99.90;;;;;;5047149;28;1175;-61
2022/10/01 02:28:08;;;;;;;;;;;10.20;99.90;;;;;;5036554;28;831;-60
2022/10/01 02:30:36;;;;;;;;;;;10.20;99.90;;;;;;5035788;28;866;-61
2022/10/01 02:33:03;;;;;;;;;;;10.20;99.90;;;;;;5036365;28;1115;-61
2022/10/01 02:35:29;;;;;;;;;;;10.20;99.90;;;;;;5018498;28;1013;-61
2022/10/01 02:37:56;;;;;;;;;;;10.20;99.90;;;;;;5034531;28;1977;-61
2022/10/01 02:40:25;;;;;;;;;;;10.20;99.90;;;;;;5035259;28;1197;-61
2022/10/01 02:42:53;;;;;;;;;;;10.20;99.90;;;;;;5018483;28;1304;-61
2022/10/01 02:45:21;;;;;;;;;;;10.20;99.90;;;;;;5035706;28;1330;-61
2022/10/01 02:47:49;;;;;;;;;;;10.20;99.90;;;;;;5035692;28;1164;-61
2022/10/01 02:50:15;;;;;;;;;;;10.20;99.90;;;;;;5035097;28;921;-61
2022/10/01 02:52:44;;;;;;;;;;;10.20;99.90;;;;;;5036797;28;1167;-61
2022/10/01 02:55:13;;;;;;;;;;;10.20;99.90;;;;;;5032584;28;1345;-61
2022/10/01 02:57:39;;;;;;;;;;;10.20;99.90;;;;;;5016924;28;1985;-61
2022/10/01 03:00:07;;;;;;;;;;;10.20;99.90;;;;;;5035576;28;1219;-61
2022/10/01 03:02:32;;;;;;;;;;;10.20;99.90;;;;;;5035492;28;1048;-61
2022/10/01 03:04:58;;;;;;;;;;;10.20;99.90;;;;;;5034838;28;1077;-61
2022/10/01 03:07:25;;;;;;;;;;;10.20;99.90;;;;;;5018027;28;1068;-61
2022/10/01 03:09:51;;;;;;;;;;;10.20;99.90;;;;;;5032024;28;1203;-61
2022/10/01 03:12:17;;;;;;;;;;;10.20;99.90;;;;;;5055077;28;1056;-61
2022/10/01 03:14:43;;;;;;;;;;;10.20;99.90;;;;;;5055644;28;1075;-61
2022/10/01 03:17:10;;;;;;;;;;;10.20;99.90;;;;;;5037525;28;1209;-61
2022/10/01 03:19:35;;;;;;;;;;;10.20;99.90;;;;;;5045958;28;1975;-61
2022/10/01 03:22:01;;;;;;;;;;;10.20;99.90;;;;;;5035563;28;1083;-61
2022/10/01 03:24:27;;;;;;;;;;;10.20;99.90;;;;;;5000950;28;1036;-61
2022/10/01 03:26:53;;;;;;;;;;;10.20;99.90;;;;;;5025957;28;1147;-61
2022/10/01 03:29:19;;;;;;;;;;;10.20;99.90;;;;;;5055544;28;862;-61
2022/10/01 03:31:45;;;;;;;;;;;10.30;99.90;;;;;;5055360;28;992;-61
2022/10/01 03:34:12;;;;;;;;;;;10.30;99.90;;;;;;5041460;28;978;-60
2022/10/01 03:36:37;;;;;;;;;;;10.30;99.90;;;;;;5034848;28;1135;-61
2022/10/01 03:39:03;;;;;;;;;;;10.30;99.90;;;;;;5016835;28;1910;-61
2022/10/01 03:41:29;;;;;;;;;;;10.30;99.90;;;;;;5034479;28;940;-61
2022/10/01 03:43:54;;;;;;;;;;;10.30;99.90;;;;;;5038636;28;1617;-61
2022/10/01 03:46:20;;;;;;;;;;;10.30;99.90;;;;;;5017719;28;1303;-61
2022/10/01 03:48:47;;;;;;;;;;;10.30;99.90;;;;;;5034033;28;1323;-61
2022/10/01 03:51:12;;;;;;;;;;;10.30;99.90;;;;;;5034279;28;1243;-61
2022/10/01 03:53:38;;;;;;;;;;;10.40;99.90;;;;;;5023602;28;1293;-62
2022/10/01 03:56:04;;;;;;;;;;;10.40;99.90;;;;;;5034212;28;1158;-61
2022/10/01 03:58:29;;;;;;;;;;;10.40;99.90;;;;;;5034634;28;1956;-61
2022/10/01 04:00:55;;;;;;;;;;;10.40;99.90;;;;;;5016110;28;1056;-61
2022/10/01 04:03:21;;;;;;;;;;;10.40;99.90;;;;;;5052436;28;1171;-61
2022/10/01 04:05:47;;;;;;;;;;;10.40;99.90;;;;;;5022640;28;1187;-61
2022/10/01 04:08:13;;;;;;;;;;;10.40;99.90;;;;;;5034002;28;965;-61
2022/10/01 04:10:39;;;;;;;;;;;10.40;99.90;;;;;;5021969;28;1148;-61
2022/10/01 04:13:05;;;;;;;;;;;10.50;99.90;;;;;;5036550;28;1028;-61
2022/10/01 04:15:31;;;;;;;;;;;10.40;99.90;;;;;;5035793;28;968;-61
2022/10/01 04:17:57;;;;;;;;;;;10.50;99.90;;;;;;5047598;28;1971;-61
2022/10/01 04:20:23;;;;;;;;;;;10.50;99.90;;;;;;5047214;28;1088;-61
2022/10/01 04:22:49;;;;;;;;;;;10.40;99.90;;;;;;5053924;28;973;-61
2022/10/01 04:25:15;;;;;;;;;;;10.50;99.90;;;;;;5054088;28;771;-61
2022/10/01 04:27:41;;;;;;;;;;;10.50;99.90;;;;;;5036045;28;1198;-61
2022/10/01 04:30:07;;;;;;;;;;;10.50;99.90;;;;;;5053505;28;1243;-61
2022/10/01 04:32:33;;;;;;;;;;;10.50;99.90;;;;;;5036127;28;1001;-61
2022/10/01 04:34:59;;;;;;;;;;;10.50;99.90;;;;;;5035388;28;1052;-61
2022/10/01 04:37:26;;;;;;;;;;;10.50;99.90;;;;;;5040648;28;1902;-61
2022/10/01 04:39:51;;;;;;;;;;;10.50;99.90;;;;;;5035841;28;1697;-61
2022/10/01 04:42:17;;;;;;;;;;;10.60;99.90;;;;;;5054138;28;1047;-61
2022/10/01 04:44:43;;;;;;;;;;;10.60;99.90;;;;;;5029759;28;1664;-61
2022/10/01 04:47:08;;;;;;;;;;;10.60;99.90;;;;;;5043134;28;1190;-61
2022/10/01 04:49:34;;;;;;;;;;;10.60;99.90;;;;;;5054822;28;980;-61
2022/10/01 04:52:00;;;;;;;;;;;10.60;99.90;;;;;;5058407;28;965;-61
2022/10/01 04:54:26;;;;;;;;;;;10.60;99.90;;;;;;5031385;28;1669;-61
2022/10/01 04:56:51;;;;;;;;;;;10.60;99.90;;;;;;5057043;28;1305;-61
2022/10/01 04:59:18;;;;;;;;;;;10.70;99.90;;;;;;5058029;28;2002;-61
2022/10/01 05:01:44;;;;;;;;;;;10.70;99.90;;;;;;5057748;28;779;-61
2022/10/01 05:04:10;;;;;;;;;;;10.80;99.90;;;;;;5056768;28;1239;-61
2022/10/01 05:06:35;;;;;;;;;;;10.80;99.90;;;;;;5058146;28;980;-61
2022/10/01 05:09:01;;;;;;;;;;;10.80;99.90;;;;;;5057701;28;763;-61
2022/10/01 05:11:27;;;;;;;;;;;10.80;99.90;;;;;;5057309;28;849;-61
2022/10/01 05:13:53;;;;;;;;;;;10.80;99.90;;;;;;5057209;28;1222;-61
2022/10/01 05:16:18;;;;;;;;;;;10.90;99.90;;;;;;5053139;28;1201;-61
2022/10/01 05:18:44;;;;;;;;;;;10.80;99.90;;;;;;5036733;28;1914;-61
2022/10/01 05:21:10;;;;;;;;;;;10.80;99.90;;;;;;5040793;28;1223;-61
2022/10/01 05:23:36;;;;;;;;;;;10.90;99.90;;;;;;5057419;28;1024;-62
2022/10/01 05:26:04;;;;;;;;;;;10.90;99.90;;;;;;5056983;28;1048;-62
2022/10/01 05:28:30;;;;;;;;;;;10.90;99.90;;;;;;5057726;28;1020;-61
2022/10/01 05:30:59;;;;;;;;;;;10.90;99.90;;;;;;5056709;28;1147;-62
2022/10/01 05:33:25;;;;;;;;;;;10.90;99.90;;;;;;5050711;28;798;-62
2022/10/01 05:35:51;;;;;;;;;;;10.90;99.90;;;;;;5037635;28;945;-62
2022/10/01 05:38:17;;;;;;;;;;;11.00;99.90;;;;;;5036873;28;1910;-61
2022/10/01 05:40:44;;;;;;;;;;;11.00;99.90;;;;;;5055091;28;1223;-61
2022/10/01 05:43:11;;;;;;;;;;;11.00;99.90;;;;;;5057152;28;1009;-62
2022/10/01 05:45:36;;;;;;;;;;;11.00;99.90;;;;;;5031414;28;1665;-61
2022/10/01 05:48:03;;;;;;;;;;;11.00;99.90;;;;;;5042417;28;1148;-61
2022/10/01 05:50:30;;;;;;;;;;;11.00;99.90;;;;;;5057305;28;878;-61
2022/10/01 05:52:56;;;;;;;;;;;11.10;99.90;;;;;;5055975;28;853;-62
2022/10/01 05:55:22;;;;;;;;;;;11.10;99.90;;;;;;5039140;28;1688;-62
2022/10/01 05:57:55;;;;;;;;;;;11.10;99.90;;;;;;5049972;28;1985;-61
2022/10/01 06:00:21;;;;;;;;;;;11.10;99.90;;;;;;5055580;28;933;-61
2022/10/01 06:02:51;;;;;;;;;;;11.10;99.90;;;;;;5057088;28;854;-61
2022/10/01 06:05:17;;;;;;;;;;;11.10;99.90;;;;;;5056448;28;1131;-62
2022/10/01 06:07:43;;;;;;;;;;;11.20;99.90;;;;;;5037649;28;965;-61
2022/10/01 06:10:08;;;;;;;;;;;11.20;99.90;;;;;;5056897;28;969;-61
2022/10/01 06:12:34;;;;;;;;;;;11.20;99.90;;;;;;5038901;28;1112;-62
2022/10/01 06:14:59;;;;;;;;;;;11.20;99.90;;;;;;5050168;28;1324;-61
2022/10/01 06:17:25;;;;;;;;;;;11.20;99.90;;;;;;5036902;28;1044;-61
2022/10/01 06:19:51;;;;;;;;;;;11.30;99.90;;;;;;5036673;28;1973;-61
2022/10/01 06:22:16;;;;;;;;;;;11.30;99.90;;;;;;5035857;28;985;-62
2022/10/01 06:24:42;;;;;;;;;;;11.40;99.90;;;;;;5053293;28;1210;-62
2022/10/01 06:27:09;;;;;;;;;;;11.30;99.90;;;;;;5056463;28;1000;-61
2022/10/01 06:29:34;;;;;;;;;;;11.30;99.90;;;;;;5055647;28;945;-61
2022/10/01 06:32:00;;;;;;;;;;;11.30;99.90;;;;;;5055895;28;1250;-62
2022/10/01 06:34:26;;;;;;;;;;;11.30;99.90;;;;;;5041909;28;1061;-61
2022/10/01 06:36:51;;;;;;;;;;;11.30;99.90;;;;;;5035115;28;822;-61
2022/10/01 06:39:17;;;;;;;;;;;11.40;99.90;;;;;;5036221;28;1914;-62
2022/10/01 06:41:43;;;;;;;;;;;11.50;99.90;;;;;;5046500;28;1223;-61
2022/10/01 06:44:13;;;;;;;;;;;11.60;99.90;;;;;;5021936;28;1610;-62
2022/10/01 06:46:39;;;;;;;;;;;11.60;99.90;;;;;;5016396;28;866;-62
2022/10/01 06:49:05;;;;;;;;;;;11.70;99.90;;;;;;5015261;28;995;-62
2022/10/01 06:54:16;;;;;;;;;;;11.80;99.90;;;;;;5047019;28;1684;-61
2022/10/01 06:56:42;;;;;;;;;;;11.80;99.90;;;;;;5035040;28;1256;-61
2022/10/01 06:59:08;;;;;;;;;;;11.80;99.90;;;;;;5043775;28;1953;-62
2022/10/01 07:01:35;;;;;;;;;;;11.90;99.90;;;;;;5055952;28;925;-62
2022/10/01 07:04:01;;;;;;;;;;;11.90;99.90;;;;;;5055161;28;875;-62
2022/10/01 07:06:26;;;;;;;;;;;11.90;99.90;;;;;;5055732;28;999;-62
2022/10/01 07:08:52;;;;;;;;;;;11.80;99.90;;;;;;5021155;28;1175;-62
2022/10/01 07:11:18;;;;;;;;;;;11.90;99.90;;;;;;5017095;28;1084;-62
2022/10/01 07:13:44;;;;;;;;;;;11.90;99.90;;;;;;5017392;28;1131;-62
2022/10/01 07:16:10;;;;;;;;;;;12.00;99.90;;;;;;5038213;28;1172;-61
2022/10/01 07:18:36;;;;;;;;;;;12.00;99.90;;;;;;5054583;28;1914;-62
2022/10/01 07:21:01;;;;;;;;;;;12.00;99.90;;;;;;5055303;28;839;-62
2022/10/01 07:23:27;;;;;;;;;;;12.10;99.90;;;;;;5055106;28;1071;-61
2022/10/01 07:25:53;;;;;;;;;;;12.20;99.90;;;;;;5037052;28;1238;-61
2022/10/01 07:28:22;;;;;;;;;;;12.30;99.90;;;;;;5035409;28;1076;-62
2022/10/01 07:30:56;;;;;;;;;;;12.30;99.90;;;;;;5035110;28;850;-61
2022/10/01 07:33:22;;;;;;;;;;;12.40;99.90;;;;;;5016715;28;1033;-62
2022/10/01 07:35:48;;;;;;;;;;;12.60;99.90;;;;;;5035922;28;1156;-62
2022/10/01 07:38:13;;;;;;;;;;;12.70;99.90;;;;;;5054078;28;1902;-62
2022/10/01 07:40:39;;;;;;;;;;;12.70;99.90;;;;;;5045237;28;1232;-61
2022/10/01 07:43:05;;;;;;;;;;;12.70;99.90;;;;;;5034331;28;1253;-62
2022/10/01 07:45:31;;;;;;;;;;;12.70;99.90;;;;;;5013696;28;1336;-62
2022/10/01 07:47:58;;;;;;;;;;;12.60;99.90;;;;;;5034520;28;1300;-62
2022/10/01 07:50:24;;;;;;;;;;;12.60;99.90;;;;;;5033208;28;1274;-62
2022/10/01 07:52:51;;;;;;;;;;;12.60;99.90;;;;;;5035079;28;1280;-62
2022/10/01 07:55:17;;;;;;;;;;;12.60;99.90;;;;;;5030394;28;1308;-62
2022/10/01 07:57:48;;;;;;;;;;;12.70;99.90;;;;;;5033697;28;1914;-62
2022/10/01 08:00:14;;;;;;;;;;;12.70;99.90;;;;;;5017036;28;1204;-62
2022/10/01 08:02:45;;;;;;;;;;;12.70;99.90;;;;;;5054887;28;1017;-62
2022/10/01 08:05:16;;;;;;;;;;;12.70;99.90;;;;;;5054914;28;982;-62
2022/10/01 08:07:42;;;;;;;;;;;12.70;99.90;;;;;;5053735;28;1012;-62
2022/10/01 08:10:07;;;;;;;;;;;12.70;99.90;;;;;;5054059;28;1230;-62
2022/10/01 08:12:33;;;;;;;;;;;12.80;99.90;;;;;;5036506;28;1354;-61
2022/10/01 08:15:01;;;;;;;;;;;13.00;99.90;;;;;;5033270;28;1203;-62
2022/10/01 08:17:26;;;;;;;;;;;13.20;99.90;;;;;;5016362;28;1246;-62
2022/10/01 08:19:52;;;;;;;;;;;13.20;99.90;;;;;;5034134;28;1969;-62
2022/10/01 08:22:18;;;;;;;;;;;13.30;99.90;;;;;;5015855;28;1100;-62
2022/10/01 08:24:43;;;;;;;;;;;13.50;99.90;;;;;;5034513;28;961;-62
2022/10/01 08:27:09;;;;;;;;;;;13.60;99.90;;;;;;5038717;28;1402;-62
2022/10/01 08:29:35;;;;;;;;;;;13.80;99.90;;;;;;5052692;28;1283;-62
2022/10/01 08:32:00;;;;;;;;;;;13.90;99.90;;;;;;5034177;28;1145;-61
2022/10/01 08:34:26;;;;;;;;;;;14.00;99.90;;;;;;5034061;28;937;-61
2022/10/01 08:36:51;;;;;;;;;;;14.00;99.90;;;;;;5044896;28;1218;-62
2022/10/01 08:39:17;;;;;;;;;;;14.10;99.90;;;;;;5037833;28;3730;-62
2022/10/01 08:41:54;;;;;;;;;;;14.20;99.90;;;;;;5019540;28;3727;-62
2022/10/01 08:44:22;;;;;;;;;;;14.40;99.90;;;;;;5022090;28;3576;-62
2022/10/01 08:46:48;;;;;;;;;;;14.50;99.90;;;;;;5008948;28;3875;-62
2022/10/01 08:49:19;;;;;;;;;;;14.50;99.90;;;;;;5048079;28;3436;-62
2022/10/01 08:51:48;;;;;;;;;;;14.60;99.90;;;;;;5053798;28;1369;-61
2022/10/01 08:54:26;;;;;;;;;;;14.70;99.90;;;;;;5029881;28;3798;-62
2022/10/01 08:56:53;;;;;;;;;;;14.80;99.90;;;;;;5051954;28;1367;-62
2022/10/01 08:59:29;;;;;;;;;;;14.90;99.90;;;;;;5049113;28;1910;-62
2022/10/01 09:01:55;;;;;;;;;;;15.00;99.90;;;;;;5032996;28;1059;-63
2022/10/01 09:04:21;;;;;;;;;;;15.10;99.90;;;;;;5044215;28;1163;-63
2022/10/01 09:06:50;;;;;;;;;;;15.10;99.90;;;;;;5036129;28;831;-62
2022/10/01 09:09:16;;;;;;;;;;;15.20;99.90;;;;;;5040343;28;1872;-62
2022/10/01 09:12:12;;;;;;;;;;;15.20;99.90;;;;;;5032907;28;2150;-62
2022/10/01 09:14:45;;;;;;;;;;;15.40;99.90;;;;;;5035725;28;2538;-62
2022/10/01 09:17:12;;;;;;;;;;;15.40;99.90;;;;;;5032752;28;2216;-62
2022/10/01 09:19:41;;;;;;;;;;;15.60;99.90;;;;;;5033822;28;1906;-62
2022/10/01 09:22:20;;;;;;;;;;;15.80;99.90;;;;;;5044874;28;1171;-62
2022/10/01 09:24:52;;;;;;;;;;;15.80;99.90;;;;;;5052706;28;901;-62
2022/10/01 09:27:22;;;;;;;;;;;16.00;99.90;;;;;;5036942;28;2121;-62
2022/10/01 09:29:51;;;;;;;;;;;16.00;99.90;;;;;;5035234;28;1112;-62
2022/10/01 09:32:19;;;;;;;;;;;16.10;99.90;;;;;;5038220;28;1004;-62
2022/10/01 09:34:45;;;;;;;;;;;16.00;99.90;;;;;;5033731;28;1001;-62
2022/10/01 09:37:27;;;;;;;;;;;16.00;99.90;;;;;;5037435;28;1203;-62
2022/10/01 09:39:59;;;;;;;;;;;16.00;99.90;;;;;;5036092;28;1968;-62
2022/10/01 09:42:26;;;;;;;;;;;15.90;99.90;;;;;;5019819;28;1795;-62
2022/10/01 09:44:53;;;;;;;;;;;15.70;99.90;;;;;;5036304;28;1661;-62
2022/10/01 09:47:20;;;;;;;;;;;15.60;99.90;;;;;;5037798;28;1211;-62
2022/10/01 09:49:47;;;;;;;;;;;15.50;99.90;;;;;;5057233;28;912;-62
2022/10/01 09:52:18;;;;;;;;;;;15.40;99.90;;;;;;5056170;28;1048;-62
2022/10/01 09:54:48;;;;;;;;;;;15.70;99.90;;;;;;5043713;28;1516;-62
2022/10/01 09:57:20;;;;;;;;;;;16.10;99.90;;;;;;5033927;28;1359;-62
2022/10/01 09:59:49;;;;;;;;;;;16.70;99.90;;;;;;5032612;28;1906;-62
2022/10/01 10:02:18;;;;;;;;;;;17.20;99.90;;;;;;5035000;28;1296;-62
2022/10/01 10:04:44;;;;;;;;;;;17.30;99.90;;;;;;5035585;28;1239;-62
2022/10/01 10:07:13;;;;;;;;;;;17.30;99.90;;;;;;5036247;28;1240;-62
2022/10/01 10:09:40;;;;;;;;;;;17.00;99.90;;;;;;5018988;28;1241;-63
2022/10/01 10:12:09;;;;;;;;;;;16.80;99.90;;;;;;5036780;28;1032;-62
2022/10/01 10:14:36;;;;;;;;;;;17.00;99.90;;;;;;5041887;28;1116;-62
2022/10/01 10:17:04;;;;;;;;;;;17.50;99.90;;;;;;5056443;28;1132;-62
2022/10/01 10:19:31;;;;;;;;;;;17.90;99.90;;;;;;5056767;28;1910;-62
2022/10/01 10:22:08;;;;;;;;;;;17.30;99.90;;;;;;5037777;28;826;-62
2022/10/01 10:24:34;;;;;;;;;;;16.90;99.90;;;;;;5051650;28;1127;-62
2022/10/01 10:27:01;;;;;;;;;;;16.30;99.90;;;;;;5017388;28;1499;-62
2022/10/01 10:29:31;;;;;;;;;;;15.80;99.90;;;;;;5034990;28;1287;-62
2022/10/01 10:31:58;;;;;;;;;;;15.40;99.90;;;;;;5034523;28;1238;-62
2022/10/01 10:34:30;;;;;;;;;;;14.90;99.90;;;;;;5031386;28;1241;-61
2022/10/01 10:36:57;;;;;;;;;;;14.60;99.90;;;;;;5015092;28;1289;-62
2022/10/01 10:39:24;;;;;;;;;;;14.40;99.90;;;;;;5017701;28;1914;-62
2022/10/01 10:41:51;;;;;;;;;;;14.20;99.90;;;;;;5046202;28;1274;-62
2022/10/01 10:44:20;;;;;;;;;;;14.10;99.90;;;;;;5034592;28;1278;-62
2022/10/01 10:46:46;;;;;;;;;;;14.00;99.90;;;;;;5030684;28;1229;-62
2022/10/01 10:49:23;;;;;;;;;;;13.90;99.90;;;;;;5034828;28;9682;-62
2022/10/01 10:51:52;;;;;;;;;;;13.70;99.90;;;;;;5075716;28;1078;-62
2022/10/01 10:54:22;;;;;;;;;;;13.50;99.90;;;;;;5049302;28;1621;-61
2022/10/01 10:56:58;;;;;;;;;;;13.40;99.90;;;;;;5055023;28;1258;-61
2022/10/01 10:59:24;;;;;;;;;;;13.00;99.90;;;;;;5052438;28;3335;-61
2022/10/01 11:01:51;;;;;;;;;;;12.80;99.90;;;;;;5054292;28;3696;-61
2022/10/01 11:04:26;;;;;;;;;;;12.60;99.90;;;;;;5055061;28;841;-61
2022/10/01 11:06:55;;;;;;;;;;;12.40;99.90;;;;;;5054529;28;1167;-61
2022/10/01 11:09:22;;;;;;;;;;;12.40;99.90;;;;;;5051376;28;1410;-62
2022/10/01 11:11:53;;;;;;;;;;;12.40;99.90;;;;;;5038077;28;1086;-62
2022/10/01 11:14:20;;;;;;;;;;;12.40;99.90;;;;;;5055115;28;849;-61
2022/10/01 11:17:06;;;;;;;;;;;12.50;99.90;;;;;;5039723;28;1143;-62
2022/10/01 11:19:33;;;;;;;;;;;12.50;99.90;;;;;;5075301;28;1969;-62
2022/10/01 11:22:10;;;;;;;;;;;12.50;99.90;;;;;;5056956;28;1099;-62
2022/10/01 11:24:42;;;;;;;;;;;12.50;99.90;;;;;;5073921;28;1190;-62
2022/10/01 11:27:12;;;;;;;;;;;12.60;99.90;;;;;;5074977;28;1000;-62
2022/10/01 11:29:43;;;;;;;;;;;12.90;99.90;;;;;;5075016;28;889;-62
2022/10/01 11:32:21;;;;;;;;;;;13.30;99.90;;;;;;5074617;28;857;-62
2022/10/01 11:35:05;;;;;;;;;;;13.40;99.90;;;;;;5074796;28;1190;-62
2022/10/01 11:37:44;;;;;;;;;;;13.50;99.90;;;;;;5074358;28;1099;-62
2022/10/01 11:40:19;;;;;;;;;;;13.60;99.90;;;;;;5075288;28;842;-62
2022/10/01 11:42:45;;;;;;;;;;;13.60;99.90;;;;;;5074636;28;1225;-62
2022/10/01 11:45:16;;;;;;;;;;;13.80;99.90;;;;;;5038263;28;1499;-62
2022/10/01 11:47:46;;;;;;;;;;;14.40;99.90;;;;;;5034780;28;949;-62
2022/10/01 11:50:15;;;;;;;;;;;15.80;99.90;;;;;;5034881;28;1012;-62
2022/10/01 11:52:42;;;;;;;;;;;16.90;99.90;;;;;;5060409;28;1179;-62
2022/10/01 12:00:41;;;;;;;;;;;18.60;99.90;;;;;;5059878;28;1246;-62
2022/10/01 12:03:11;;;;;;;;;;;18.90;99.90;;;;;;5074705;28;1035;-62
2022/10/01 12:05:37;;;;;;;;;;;19.00;99.90;;;;;;5045451;28;1194;-62
2022/10/01 12:08:07;;;;;;;;;;;19.20;99.90;;;;;;5054412;28;1264;-61
2022/10/01 12:10:43;;;;;;;;;;;19.30;99.90;;;;;;5069062;28;1155;-62
2022/10/01 12:13:09;;;;;;;;;;;19.30;99.90;;;;;;5073568;28;1075;-62
2022/10/01 12:15:52;;;;;;;;;;;18.90;99.90;;;;;;5056745;28;826;-62
2022/10/01 12:18:21;;;;;;;;;;;17.70;99.90;;;;;;5073786;28;1983;-62
2022/10/01 12:20:48;;;;;;;;;;;16.90;99.90;;;;;;5073216;28;1005;-62
2022/10/01 12:23:16;;;;;;;;;;;16.70;99.90;;;;;;5074433;28;1020;-62
2022/10/01 12:25:51;;;;;;;;;;;16.80;99.90;;;;;;5074003;28;1143;-62
2022/10/01 12:28:20;;;;;;;;;;;16.80;99.90;;;;;;5072796;28;1155;-62
2022/10/01 12:30:52;;;;;;;;;;;16.50;99.90;;;;;;5074269;28;857;-62
2022/10/01 12:33:26;;;;;;;;;;;16.20;99.90;;;;;;5050906;28;1385;-62
2022/10/01 12:36:02;;;;;;;;;;;16.10;99.90;;;;;;5057232;28;1164;-62
2022/10/01 12:38:35;;;;;;;;;;;16.00;99.90;;;;;;5074150;28;1905;-61
2022/10/01 12:41:08;;;;;;;;;;;16.00;99.90;;;;;;5073192;28;1068;-62
2022/10/01 12:43:46;;;;;;;;;;;16.60;99.90;;;;;;5069363;28;1637;-62
2022/10/01 12:46:26;;;;;;;;;;;17.40;99.90;;;;;;5050931;28;1222;-62
2022/10/01 12:48:56;;;;;;;;;;;17.20;99.90;;;;;;5053235;28;1091;-62
2022/10/01 12:51:21;;;;;;;;;;;17.60;99.90;;;;;;5053919;28;1008;-62
2022/10/01 12:53:56;;;;;;;;;;;18.70;99.90;;;;;;5055264;28;1284;-62
2022/10/01 12:56:28;;;;;;;;;;;19.30;99.90;;;;;;5053012;28;1125;-62
2022/10/01 12:58:55;;;;;;;;;;;19.60;99.90;;;;;;5051994;28;1902;-62
2022/10/01 13:01:25;;;;;;;;;;;20.00;99.90;;;;;;5050094;28;3498;-62
2022/10/01 13:03:52;;;;;;;;;;;20.20;99.90;;;;;;5045498;28;3641;-62
2022/10/01 13:06:27;;;;;;;;;;;20.10;99.90;;;;;;5019383;28;3568;-62
2022/10/01 13:08:52;;;;;;;;;;;20.10;99.90;;;;;;5033200;28;993;-62
2022/10/01 13:11:25;;;;;;;;;;;19.30;99.90;;;;;;5039294;28;3822;-62
2022/10/01 13:13:52;;;;;;;;;;;18.40;99.90;;;;;;5040387;28;1128;-62
2022/10/01 13:16:24;;;;;;;;;;;17.80;99.90;;;;;;5077112;28;842;-62
2022/10/01 13:18:54;;;;;;;;;;;17.20;99.90;;;;;;5057104;28;1906;-62
2022/10/01 13:21:28;;;;;;;;;;;16.70;99.90;;;;;;5071333;28;1131;-62
2022/10/01 13:24:00;;;;;;;;;;;16.20;99.90;;;;;;5058831;28;1935;-62
2022/10/01 13:26:44;;;;;;;;;;;16.00;99.90;;;;;;5077541;28;993;-62
2022/10/01 13:29:25;;;;;;;;;;;15.90;99.90;;;;;;5070759;28;1147;-62
2022/10/01 13:31:58;;;;;;;;;;;15.80;99.90;;;;;;5056910;28;989;-62
2022/10/01 13:34:36;;;;;;;;;;;15.80;99.90;;;;;;5039142;28;1283;-62
2022/10/01 13:37:09;;;;;;;;;;;15.70;99.90;;;;;;5038585;28;1040;-62
2022/10/01 13:39:34;;;;;;;;;;;15.60;99.90;;;;;;5076048;28;1906;-62
2022/10/01 13:42:03;;;;;;;;;;;15.50;99.90;;;;;;5042499;28;1036;-61
2022/10/01 13:44:32;;;;;;;;;;;15.50;99.90;;;;;;5059866;28;1550;-61
2022/10/01 13:47:02;;;;;;;;;;;15.40;99.90;;;;;;5063940;28;1226;-61
2022/10/01 13:49:29;;;;;;;;;;;15.40;99.90;;;;;;5076904;28;1032;-61
2022/10/01 13:51:55;;;;;;;;;;;15.40;99.90;;;;;;5058347;28;981;-62
2022/10/01 13:54:23;;;;;;;;;;;15.30;99.90;;;;;;5067759;28;1612;-62
2022/10/01 13:56:49;;;;;;;;;;;15.00;99.90;;;;;;5071579;28;1329;-61
2022/10/01 13:59:31;;;;;;;;;;;14.60;99.90;;;;;;5075867;28;1914;-62
2022/10/01 14:01:57;;;;;;;;;;;14.30;99.90;;;;;;5077072;28;850;-62
2022/10/01 14:04:26;;;;;;;;;;;13.80;99.90;;;;;;5070951;28;1224;-62
2022/10/01 14:06:54;;;;;;;;;;;13.50;99.90;;;;;;5057997;28;989;-62
2022/10/01 14:09:27;;;;;;;;;;;13.30;99.90;;;;;;5059050;28;898;-62
2022/10/01 14:17:35;;;;;;;;;;;13.00;99.90;;;;;;5058668;28;1076;-62
2022/10/01 14:20:01;;;;;;;;;;;13.10;99.90;;;;;;5057884;28;1906;-62
2022/10/01 14:22:26;;;;;;;;;;;13.10;99.90;;;;;;5053228;28;1175;-62
2022/10/01 14:25:03;;;;;;;;;;;13.10;99.90;;;;;;5058489;28;1080;-62
2022/10/01 14:27:28;;;;;;;;;;;13.20;99.90;;;;;;5075129;28;1096;-62
2022/10/01 14:30:09;;;;;;;;;;;13.90;99.90;;;;;;5076383;28;921;-62
2022/10/01 14:32:36;;;;;;;;;;;14.50;99.90;;;;;;5075663;28;1162;-62
2022/10/01 14:35:06;;;;;;;;;;;14.60;99.90;;;;;;5056160;28;1048;-62
2022/10/01 14:37:36;;;;;;;;;;;14.70;99.90;;;;;;5038605;28;1024;-62
2022/10/01 14:40:12;;;;;;;;;;;14.90;99.90;;;;;;5062854;28;1979;-62
2022/10/01 14:42:38;;;;;;;;;;;14.70;99.90;;;;;;5075993;28;1020;-62
2022/10/01 14:45:14;;;;;;;;;;;14.30;99.90;;;;;;5046750;28;1637;-62
2022/10/01 14:47:39;;;;;;;;;;;14.10;99.90;;;;;;5035389;28;893;-62
2022/10/01 14:50:09;;;;;;;;;;;14.70;99.90;;;;;;5069231;28;1160;-62
2022/10/01 14:52:37;;;;;;;;;;;14.60;99.90;;;;;;5076322;28;1052;-62
2022/10/01 14:55:05;;;;;;;;;;;14.30;99.90;;;;;;5059891;28;1656;-62